createdAt,value
2024-05-09T00:00:36.211Z,8.89
2024-05-09T00:03:10.495Z,8.88
2024-05-09T00:05:41.344Z,8.84
2024-05-09T00:08:09.493Z,8.80
2024-05-09T00:10:38.675Z,8.77
2024-05-09T00:13:07.631Z,8.72
2024-05-09T00:15:37.393Z,8.70
2024-05-09T00:18:05.212Z,8.65
2024-05-09T00:20:37.903Z,8.58
2024-05-09T00:23:08.737Z,8.55
2024-05-09T00:25:35.793Z,8.50
2024-05-09T00:28:03.120Z,8.51
2024-05-09T00:30:34.231Z,8.52
2024-05-09T00:33:07.885Z,8.51
2024-05-09T00:35:36.054Z,8.51
2024-05-09T00:38:03.835Z,8.48
2024-05-09T00:40:41.618Z,8.44
2024-05-09T00:43:11.385Z,8.43
2024-05-09T00:45:38.603Z,8.43
2024-05-09T00:48:07.714Z,8.40
2024-05-09T00:50:37.747Z,8.36
2024-05-09T00:53:10.317Z,8.35
2024-05-09T00:55:37.849Z,8.33
2024-05-09T00:58:05.524Z,8.33
2024-05-09T01:00:38.745Z,8.30
2024-05-09T01:03:09.054Z,8.30
2024-05-09T01:05:39.170Z,8.25
2024-05-09T01:08:06.877Z,8.24
2024-05-09T01:10:35.388Z,8.24
2024-05-09T01:13:03.840Z,8.24
2024-05-09T01:15:30.699Z,8.20
2024-05-09T01:17:58.119Z,8.19
2024-05-09T01:20:36.529Z,8.14
2024-05-09T01:23:09.010Z,8.15
2024-05-09T01:25:36.010Z,8.09
2024-05-09T01:28:02.735Z,8.07
2024-05-09T01:30:34.707Z,8.04
2024-05-09T01:33:04.510Z,8.01
2024-05-09T01:35:31.820Z,8.01
2024-05-09T01:37:58.704Z,8.00
2024-05-09T01:40:35.515Z,7.94
2024-05-09T01:43:05.150Z,7.97
2024-05-09T01:45:31.847Z,7.95
2024-05-09T01:47:58.886Z,7.96
2024-05-09T01:50:37.056Z,7.94
2024-05-09T01:53:07.679Z,7.90
2024-05-09T01:55:34.589Z,7.90
2024-05-09T01:58:01.331Z,7.88
2024-05-09T02:00:37.974Z,7.89
2024-05-09T02:03:15.421Z,7.89
2024-05-09T02:05:48.293Z,7.89
2024-05-09T02:08:19.892Z,7.86
2024-05-09T02:10:48.260Z,7.83
2024-05-09T02:13:15.802Z,7.80
2024-05-09T02:15:42.665Z,7.78
2024-05-09T02:18:10.407Z,7.77
2024-05-09T02:20:41.752Z,7.77
2024-05-09T02:23:09.775Z,7.74
2024-05-09T02:25:36.714Z,7.75
2024-05-09T02:28:03.494Z,7.72
2024-05-09T02:30:38.713Z,7.72
2024-05-09T02:33:09.962Z,7.70
2024-05-09T02:35:38.514Z,7.68
2024-05-09T02:38:05.357Z,7.65
2024-05-09T02:40:37.231Z,7.60
2024-05-09T02:43:07.191Z,7.60
2024-05-09T02:45:34.368Z,7.60
2024-05-09T02:48:01.883Z,7.59
2024-05-09T02:50:37.067Z,7.60
2024-05-09T02:53:09.996Z,7.57
2024-05-09T02:55:40.532Z,7.55
2024-05-09T02:58:07.485Z,7.50
2024-05-09T03:00:38.957Z,7.47
2024-05-09T03:03:12.054Z,7.44
2024-05-09T03:05:41.114Z,7.42
2024-05-09T03:08:08.249Z,7.41
2024-05-09T03:10:37.273Z,7.44
2024-05-09T03:13:09.115Z,7.45
2024-05-09T03:15:36.159Z,7.41
2024-05-09T03:18:03.493Z,7.40
2024-05-09T03:20:34.360Z,7.38
2024-05-09T03:23:03.197Z,7.36
2024-05-09T03:25:30.153Z,7.36
2024-05-09T03:27:56.956Z,7.32
2024-05-09T03:30:38.432Z,7.28
2024-05-09T03:33:18.348Z,7.25
2024-05-09T03:35:46.950Z,7.22
2024-05-09T03:38:13.933Z,7.22
2024-05-09T03:40:48.607Z,7.20
2024-05-09T03:43:16.254Z,7.18
2024-05-09T03:45:43.415Z,7.16
2024-05-09T03:48:10.782Z,7.15
2024-05-09T03:50:38.063Z,7.17
2024-05-09T03:53:05.347Z,7.19
2024-05-09T03:55:32.180Z,7.21
2024-05-09T03:57:59.253Z,7.22
2024-05-09T04:00:34.509Z,7.20
2024-05-09T04:03:07.620Z,7.20
2024-05-09T04:05:38.144Z,7.19
2024-05-09T04:08:05.610Z,7.16
2024-05-09T04:10:34.239Z,7.18
2024-05-09T04:13:02.900Z,7.18
2024-05-09T04:15:29.904Z,7.19
2024-05-09T04:17:56.826Z,7.19
2024-05-09T04:20:34.366Z,7.23
2024-05-09T04:23:06.824Z,7.26
2024-05-09T04:25:34.022Z,7.26
2024-05-09T04:28:00.796Z,7.29
2024-05-09T04:30:36.381Z,7.36
2024-05-09T04:33:07.760Z,7.39
2024-05-09T04:35:36.075Z,7.46
2024-05-09T04:38:02.975Z,7.53
2024-05-09T04:40:34.167Z,7.58
2024-05-09T04:43:04.324Z,7.64
2024-05-09T04:45:31.280Z,7.71
2024-05-09T04:47:58.579Z,7.79
2024-05-09T04:50:33.824Z,7.83
2024-05-09T04:53:05.063Z,7.90
2024-05-09T04:55:32.614Z,7.95
2024-05-09T04:57:59.303Z,7.99
2024-05-09T05:00:32.694Z,8.02
2024-05-09T05:03:10.197Z,8.10
2024-05-09T05:05:40.874Z,8.16
2024-05-09T05:08:18.959Z,8.21
2024-05-09T05:10:47.149Z,8.30
2024-05-09T05:13:23.056Z,8.37
2024-05-09T05:15:57.289Z,8.47
2024-05-09T05:18:25.792Z,8.54
2024-05-09T05:20:52.874Z,8.61
2024-05-09T05:23:20.942Z,8.69
2024-05-09T05:25:53.223Z,8.77
2024-05-09T05:28:20.631Z,8.86
2024-05-09T05:30:47.540Z,8.99
2024-05-09T05:33:15.969Z,9.09
2024-05-09T05:35:43.288Z,9.19
2024-05-09T05:38:10.864Z,9.31
2024-05-09T05:40:38.973Z,9.44
2024-05-09T05:43:10.782Z,9.56
2024-05-09T05:45:38.035Z,9.67
2024-05-09T05:48:06.517Z,9.80
2024-05-09T05:50:36.922Z,9.90
2024-05-09T05:53:09.517Z,9.97
2024-05-09T05:55:37.578Z,10.10
2024-05-09T05:58:04.544Z,10.21
2024-05-09T06:00:38.202Z,10.33
2024-05-09T06:03:10.789Z,10.40
2024-05-09T06:05:44.005Z,10.54
2024-05-09T06:08:11.501Z,10.61
2024-05-09T06:10:40.513Z,10.73
2024-05-09T06:13:11.248Z,10.86
2024-05-09T06:15:38.355Z,10.98
2024-05-09T06:18:06.704Z,11.13
2024-05-09T06:20:36.599Z,11.26
2024-05-09T06:23:08.891Z,11.36
2024-05-09T06:25:36.328Z,11.32
2024-05-09T06:28:03.543Z,11.51
2024-05-09T06:30:37.858Z,11.72
2024-05-09T06:33:08.676Z,11.75
2024-05-09T06:35:36.195Z,11.81
2024-05-09T06:38:03.016Z,11.97
2024-05-09T06:40:37.138Z,12.12
2024-05-09T06:43:11.328Z,12.26
2024-05-09T06:45:39.878Z,12.45
2024-05-09T06:48:07.665Z,12.61
2024-05-09T06:50:37.944Z,12.67
2024-05-09T06:53:06.401Z,12.83
2024-05-09T06:55:33.239Z,12.94
2024-05-09T06:57:59.899Z,13.14
2024-05-09T07:00:35.097Z,13.28
2024-05-09T07:03:15.492Z,13.29
2024-05-09T07:05:44.694Z,13.40
2024-05-09T07:08:11.613Z,13.51
2024-05-09T07:10:38.632Z,13.60
2024-05-09T07:13:10.234Z,13.44
2024-05-09T07:15:37.611Z,13.75
2024-05-09T07:18:16.697Z,13.89
2024-05-09T07:20:45.424Z,13.92
2024-05-09T07:23:12.801Z,13.96
2024-05-09T07:25:40.575Z,13.88
2024-05-09T07:28:13.141Z,13.98
2024-05-09T07:30:39.835Z,14.13
2024-05-09T07:33:06.744Z,13.83
2024-05-09T07:35:33.741Z,14.10
2024-05-09T07:38:00.664Z,14.26
2024-05-09T07:40:35.013Z,14.41
2024-05-09T07:43:13.244Z,14.34
2024-05-09T07:45:49.566Z,14.46
2024-05-09T07:52:37.356Z,14.79
2024-05-09T07:53:47.528Z,15.01
2024-05-09T07:56:18.618Z,15.17
2024-05-09T07:58:46.292Z,15.41
2024-05-09T08:01:13.135Z,15.58
2024-05-09T08:03:40.144Z,15.43
2024-05-09T08:06:07.000Z,15.52
2024-05-09T08:08:33.658Z,15.30
2024-05-09T08:11:00.363Z,15.66
2024-05-09T08:13:27.025Z,15.78
2024-05-09T08:15:53.779Z,16.08
2024-05-09T08:18:20.619Z,16.02
2024-05-09T08:20:48.466Z,16.43
2024-05-09T08:23:15.226Z,16.29
2024-05-09T08:25:41.917Z,16.49
2024-05-09T08:28:08.703Z,16.75
2024-05-09T08:30:37.457Z,16.21
2024-05-09T08:33:06.628Z,15.82
2024-05-09T08:35:34.565Z,16.25
2024-05-09T08:38:05.369Z,17.19
2024-05-09T08:40:35.818Z,17.93
2024-05-09T08:43:08.618Z,18.14
2024-05-09T08:45:38.433Z,18.62
2024-05-09T08:48:08.220Z,18.55
2024-05-09T08:50:38.931Z,18.16
2024-05-09T08:53:10.107Z,19.14
2024-05-09T08:55:40.768Z,19.07
2024-05-09T08:58:13.785Z,20.50
2024-05-09T09:00:42.240Z,19.89
2024-05-09T09:03:09.951Z,19.14
2024-05-09T09:05:39.322Z,19.18
2024-05-09T09:08:08.231Z,18.92
2024-05-09T09:10:35.432Z,18.68
2024-05-09T09:13:04.902Z,18.35
2024-05-09T09:15:32.679Z,18.79
2024-05-09T09:18:01.049Z,19.17
2024-05-09T09:20:35.489Z,19.28
2024-05-09T09:23:04.123Z,19.03
2024-05-09T09:25:31.073Z,18.86
2024-05-09T09:27:58.207Z,19.19
2024-05-09T09:30:36.424Z,19.33
2024-05-09T09:33:06.340Z,18.48
2024-05-09T09:35:34.155Z,18.80
2024-05-09T09:38:05.894Z,18.99
2024-05-09T09:40:40.877Z,19.17
2024-05-09T09:43:15.202Z,18.91
2024-05-09T09:45:43.837Z,19.41
2024-05-09T09:48:12.207Z,19.16
2024-05-09T09:50:40.182Z,18.43
2024-05-09T09:53:07.688Z,18.63
2024-05-09T09:55:35.079Z,19.42
2024-05-09T09:58:04.604Z,19.58
2024-05-09T10:00:33.720Z,18.63
2024-05-09T10:03:01.792Z,19.07
2024-05-09T10:05:29.211Z,18.60
2024-05-09T10:07:56.605Z,18.56
2024-05-09T10:10:31.578Z,18.32
2024-05-09T10:13:07.067Z,18.12
2024-05-09T10:15:50.726Z,18.03
2024-05-09T10:18:22.681Z,18.87
2024-05-09T10:20:51.842Z,19.35
2024-05-09T10:23:27.937Z,19.33
2024-05-09T10:25:59.060Z,19.89
2024-05-09T10:28:29.513Z,19.72
2024-05-09T10:31:11.014Z,19.62
2024-05-09T10:33:52.247Z,19.92
2024-05-09T10:36:26.517Z,19.95
2024-05-09T10:38:54.266Z,19.84
2024-05-09T10:41:21.778Z,19.82
2024-05-09T10:43:49.073Z,20.04
2024-05-09T10:46:16.503Z,19.92
2024-05-09T10:48:44.431Z,19.41
2024-05-09T10:51:11.585Z,19.34
2024-05-09T10:53:42.543Z,19.49
2024-05-09T10:56:09.751Z,19.50
2024-05-09T10:58:36.727Z,19.53
2024-05-09T11:01:06.775Z,19.56
2024-05-09T11:03:34.565Z,19.77
2024-05-09T11:06:01.542Z,19.74
2024-05-09T11:08:28.658Z,20.12
2024-05-09T11:10:56.426Z,20.66
2024-05-09T11:13:27.886Z,20.57
2024-05-09T11:15:54.832Z,20.83
2024-05-09T11:18:25.520Z,20.90
2024-05-09T11:20:54.317Z,21.08
2024-05-09T11:23:22.670Z,21.51
2024-05-09T11:25:50.155Z,21.70
2024-05-09T11:28:20.439Z,21.71
2024-05-09T11:30:48.841Z,21.37
2024-05-09T11:33:17.499Z,20.50
2024-05-09T11:35:45.257Z,20.58
2024-05-09T11:38:12.280Z,20.05
2024-05-09T11:40:39.488Z,20.31
2024-05-09T11:43:06.586Z,20.29
2024-05-09T11:45:33.432Z,20.07
2024-05-09T11:48:00.293Z,20.38
2024-05-09T11:50:32.775Z,20.55
2024-05-09T11:53:02.474Z,20.20
2024-05-09T11:55:29.323Z,19.87
2024-05-09T11:57:56.951Z,20.24
2024-05-09T12:00:33.016Z,20.30
2024-05-09T12:03:04.954Z,20.39
2024-05-09T12:05:32.405Z,19.94
2024-05-09T12:07:59.420Z,19.88
2024-05-09T12:10:32.435Z,20.02
2024-05-09T12:13:01.961Z,19.77
2024-05-09T12:15:28.884Z,19.50
2024-05-09T12:17:58.210Z,19.11
2024-05-09T12:20:35.125Z,19.16
2024-05-09T12:23:05.064Z,18.86
2024-05-09T12:25:31.706Z,18.77
2024-05-09T12:27:58.619Z,18.71
2024-05-09T12:30:33.335Z,18.61
2024-05-09T12:33:04.999Z,18.80
2024-05-09T12:35:31.981Z,19.09
2024-05-09T12:37:58.776Z,19.04
2024-05-09T12:40:34.367Z,19.11
2024-05-09T12:43:04.847Z,19.33
2024-05-09T12:45:31.938Z,19.70
2024-05-09T12:47:58.915Z,19.27
2024-05-09T12:50:32.275Z,18.85
2024-05-09T12:53:01.108Z,19.17
2024-05-09T12:55:28.646Z,19.45
2024-05-09T12:57:58.518Z,19.31
2024-05-09T13:00:31.467Z,19.39
2024-05-09T13:03:01.028Z,19.52
2024-05-09T13:05:28.603Z,19.71
2024-05-09T13:07:56.861Z,20.24
2024-05-09T13:10:31.133Z,20.82
2024-05-09T13:13:00.763Z,21.50
2024-05-09T13:15:28.071Z,21.54
2024-05-09T13:17:57.900Z,21.20
2024-05-09T13:20:32.376Z,21.96
2024-05-09T13:23:02.126Z,22.29
2024-05-09T13:25:28.810Z,22.52
2024-05-09T13:27:56.468Z,22.64
2024-05-09T13:30:29.783Z,23.08
2024-05-09T13:33:06.079Z,22.97
2024-05-09T13:35:35.088Z,23.77
2024-05-09T13:38:02.717Z,23.56
2024-05-09T13:40:33.843Z,23.68
2024-05-09T13:43:03.326Z,23.77
2024-05-09T13:45:30.195Z,23.10
2024-05-09T13:47:57.234Z,22.52
2024-05-09T13:50:33.073Z,21.67
2024-05-09T13:53:02.669Z,22.52
2024-05-09T13:55:29.445Z,22.10
2024-05-09T13:57:56.390Z,21.93
2024-05-09T14:00:37.464Z,21.90
2024-05-09T14:03:10.148Z,22.10
2024-05-09T14:05:37.203Z,21.46
2024-05-09T14:08:04.319Z,20.64
2024-05-09T14:10:32.178Z,21.00
2024-05-09T14:13:00.746Z,21.62
2024-05-09T14:15:27.798Z,21.61
2024-05-09T14:17:55.128Z,22.18
2024-05-09T14:20:30.121Z,22.45
2024-05-09T14:23:02.007Z,22.93
2024-05-09T14:25:30.450Z,24.02
2024-05-09T14:28:00.591Z,23.58
2024-05-09T14:30:34.798Z,23.90
2024-05-09T14:33:05.428Z,24.64
2024-05-09T14:35:32.807Z,24.72
2024-05-09T14:37:59.501Z,24.97
2024-05-09T14:40:36.667Z,23.98
2024-05-09T14:43:08.617Z,23.98
2024-05-09T14:45:35.834Z,24.80
2024-05-09T14:48:03.563Z,24.04
2024-05-09T14:50:36.073Z,23.62
2024-05-09T14:53:06.834Z,24.63
2024-05-09T14:55:37.385Z,24.53
2024-05-09T14:58:11.841Z,24.92
2024-05-09T15:00:46.755Z,24.30
2024-05-09T15:03:18.245Z,25.22
2024-05-09T15:05:45.372Z,24.46
2024-05-09T15:08:12.161Z,24.59
2024-05-09T15:10:39.164Z,25.28
2024-05-09T15:13:08.067Z,26.02
2024-05-09T15:15:36.789Z,25.57
2024-05-09T15:18:04.499Z,25.58
2024-05-09T15:20:35.485Z,25.76
2024-05-09T15:23:05.033Z,25.54
2024-05-09T15:25:33.348Z,25.63
2024-05-09T15:28:00.260Z,26.36
2024-05-09T15:30:31.446Z,25.79
2024-05-09T15:33:00.869Z,25.38
2024-05-09T15:35:27.968Z,24.34
2024-05-09T15:37:54.868Z,25.14
2024-05-09T15:40:30.910Z,25.07
2024-05-09T15:43:05.124Z,25.52
2024-05-09T15:45:32.349Z,25.89
2024-05-09T15:47:59.722Z,25.55
2024-05-09T15:50:36.376Z,25.18
2024-05-09T15:53:07.918Z,25.41
2024-05-09T15:55:35.561Z,25.17
2024-05-09T15:58:03.145Z,25.53
2024-05-09T16:00:37.435Z,25.35
2024-05-09T16:03:08.357Z,25.71
2024-05-09T16:05:35.387Z,25.47
2024-05-09T16:08:02.637Z,25.21
2024-05-09T16:10:32.866Z,25.36
2024-05-09T16:13:01.809Z,25.34
2024-05-09T16:15:28.957Z,25.68
2024-05-09T16:17:56.316Z,25.21
2024-05-09T16:22:52.834Z,25.17
2024-05-09T16:25:19.697Z,25.20
2024-05-09T16:27:46.532Z,25.30
2024-05-09T16:30:20.987Z,24.95
2024-05-09T16:32:54.083Z,25.10
2024-05-09T16:35:20.787Z,24.33
2024-05-09T16:37:47.876Z,25.29
2024-05-09T16:40:22.166Z,24.74
2024-05-09T16:42:56.847Z,25.12
2024-05-09T16:45:23.486Z,25.33
2024-05-09T16:47:50.497Z,25.20
2024-05-09T16:50:25.712Z,25.20
2024-05-09T16:52:55.871Z,24.73
2024-05-09T16:55:22.777Z,23.68
2024-05-09T16:57:49.905Z,22.18
2024-05-09T17:00:25.524Z,22.83
2024-05-09T17:02:58.384Z,21.74
2024-05-09T17:05:25.379Z,21.58
2024-05-09T17:07:52.136Z,20.58
2024-05-09T17:10:26.694Z,20.41
2024-05-09T17:12:58.913Z,20.30
2024-05-09T17:15:25.747Z,20.19
2024-05-09T17:17:52.486Z,20.11
2024-05-09T17:20:29.279Z,20.26
2024-05-09T17:23:01.665Z,20.11
2024-05-09T17:25:28.446Z,20.18
2024-05-09T17:27:55.308Z,20.24
2024-05-09T17:30:29.068Z,20.34
2024-05-09T17:33:02.195Z,20.19
2024-05-09T17:35:29.113Z,20.74
2024-05-09T17:37:55.867Z,21.27
2024-05-09T17:40:30.908Z,21.65
2024-05-09T17:43:01.797Z,22.10
2024-05-09T17:45:28.684Z,21.42
2024-05-09T17:47:55.776Z,21.48
2024-05-09T17:50:30.242Z,21.14
2024-05-09T17:53:01.775Z,21.83
2024-05-09T17:55:28.859Z,21.05
2024-05-09T17:57:55.858Z,20.85
2024-05-09T18:00:33.069Z,20.33
2024-05-09T18:03:05.778Z,19.81
2024-05-09T18:05:33.035Z,19.70
2024-05-09T18:08:00.041Z,19.81
2024-05-09T18:10:33.780Z,19.45
2024-05-09T18:13:05.472Z,19.54
2024-05-09T18:15:32.832Z,19.19
2024-05-09T18:17:59.951Z,19.41
2024-05-09T18:20:37.877Z,19.02
2024-05-09T18:23:10.899Z,19.11
2024-05-09T18:25:37.760Z,19.22
2024-05-09T18:28:04.894Z,18.94
2024-05-09T18:30:35.098Z,18.70
2024-05-09T18:33:05.086Z,18.69
2024-05-09T18:35:33.316Z,18.44
2024-05-09T18:38:00.391Z,18.38
2024-05-09T18:40:33.731Z,18.28
2024-05-09T18:43:04.477Z,17.99
2024-05-09T18:45:32.196Z,17.89
2024-05-09T18:47:59.173Z,18.08
2024-05-09T18:50:33.715Z,17.86
2024-05-09T18:53:06.187Z,17.86
2024-05-09T18:55:33.253Z,17.67
2024-05-09T18:58:00.365Z,17.80
2024-05-09T19:00:34.248Z,17.71
2024-05-09T19:03:06.073Z,17.51
2024-05-09T19:05:35.280Z,17.34
2024-05-09T19:08:02.868Z,17.30
2024-05-09T19:10:34.249Z,16.95
2024-05-09T19:13:05.322Z,16.89
2024-05-09T19:15:35.489Z,16.70
2024-05-09T19:18:02.528Z,16.64
2024-05-09T19:20:34.158Z,16.60
2024-05-09T19:23:02.459Z,16.39
2024-05-09T19:25:29.113Z,16.36
2024-05-09T19:27:55.756Z,16.26
2024-05-09T19:30:30.199Z,16.14
2024-05-09T19:33:05.147Z,16.08
2024-05-09T19:35:32.459Z,15.92
2024-05-09T19:37:59.199Z,15.77
2024-05-09T19:40:31.302Z,15.65
2024-05-09T19:43:00.740Z,15.63
2024-05-09T19:45:27.713Z,15.61
2024-05-09T19:47:54.683Z,15.57
2024-05-09T19:50:30.205Z,15.52
2024-05-09T19:53:03.233Z,15.39
2024-05-09T19:55:29.931Z,15.27
2024-05-09T19:57:57.081Z,15.27
2024-05-09T20:00:32.452Z,15.13
2024-05-09T20:03:02.669Z,15.00
2024-05-09T20:05:32.592Z,15.05
2024-05-09T20:07:59.582Z,14.98
2024-05-09T20:10:31.485Z,14.91
2024-05-09T20:13:00.491Z,14.85
2024-05-09T20:15:27.294Z,14.86
2024-05-09T20:17:54.472Z,14.85
2024-05-09T20:20:32.147Z,14.71
2024-05-09T20:23:04.057Z,14.69
2024-05-09T20:25:30.795Z,14.72
2024-05-09T20:27:57.683Z,14.73
2024-05-09T20:30:31.324Z,14.66
2024-05-09T20:33:01.852Z,14.57
2024-05-09T20:35:31.743Z,14.63
2024-05-09T20:37:58.947Z,14.67
2024-05-09T20:40:31.675Z,14.63
2024-05-09T20:43:02.053Z,14.61
2024-05-09T20:45:28.761Z,14.59
2024-05-09T20:47:56.120Z,14.63
2024-05-09T20:50:29.336Z,14.65
2024-05-09T20:53:03.933Z,14.68
2024-05-09T20:55:30.732Z,14.74
2024-05-09T20:57:57.742Z,14.73
2024-05-09T21:00:34.362Z,14.75
2024-05-09T21:03:07.002Z,14.75
2024-05-09T21:05:34.797Z,14.81
2024-05-09T21:08:02.057Z,14.86
2024-05-09T21:10:32.818Z,14.81
2024-05-09T21:13:01.358Z,14.85
2024-05-09T21:15:28.394Z,14.83
2024-05-09T21:17:55.289Z,14.75
2024-05-09T21:20:28.720Z,14.77
2024-05-09T21:22:58.393Z,14.68
2024-05-09T21:25:25.150Z,14.66
2024-05-09T21:27:52.211Z,14.60
2024-05-09T21:30:28.217Z,14.58
2024-05-09T21:33:05.003Z,14.53
2024-05-09T21:35:32.016Z,14.54
2024-05-09T21:37:58.747Z,14.51
2024-05-09T21:40:31.666Z,14.50
2024-05-09T21:43:01.705Z,14.44
2024-05-09T21:45:28.502Z,14.38
2024-05-09T21:47:55.527Z,14.32
2024-05-09T21:50:28.380Z,14.32
2024-05-09T21:53:02.783Z,14.28
2024-05-09T21:55:30.104Z,14.26
2024-05-09T21:57:57.181Z,14.10
2024-05-09T22:00:32.104Z,14.07
2024-05-09T22:03:03.489Z,13.97
2024-05-09T22:05:30.558Z,13.95
2024-05-09T22:07:57.469Z,13.88
2024-05-09T22:10:30.605Z,13.83
2024-05-09T22:13:01.067Z,13.74
2024-05-09T22:15:27.959Z,13.64
2024-05-09T22:17:55.713Z,13.57
2024-05-09T22:20:29.305Z,13.54
2024-05-09T22:23:03.193Z,13.48
2024-05-09T22:25:31.163Z,13.47
2024-05-09T22:27:58.882Z,13.43
2024-05-09T22:30:34.168Z,13.36
2024-05-09T22:33:05.481Z,13.31
2024-05-09T22:35:32.403Z,13.27
2024-05-09T22:37:59.177Z,13.24
2024-05-09T22:40:38.005Z,13.24
2024-05-09T22:43:12.749Z,13.16
2024-05-09T22:45:39.821Z,13.12
2024-05-09T22:48:08.075Z,13.06
2024-05-09T22:50:35.033Z,13.02
2024-05-09T22:53:01.794Z,13.01
2024-05-09T22:55:28.783Z,12.96
2024-05-09T22:57:55.820Z,12.94
2024-05-09T23:00:30.916Z,12.89
2024-05-09T23:03:00.335Z,12.83
2024-05-09T23:05:27.515Z,12.78
2024-05-09T23:07:54.364Z,12.72
2024-05-09T23:10:28.155Z,12.76
2024-05-09T23:13:01.437Z,12.77
2024-05-09T23:15:28.384Z,12.78
2024-05-09T23:17:55.448Z,12.73
2024-05-09T23:20:33.052Z,12.71
2024-05-09T23:23:05.182Z,12.70
2024-05-09T23:25:31.941Z,12.67
2024-05-09T23:27:58.820Z,12.68
2024-05-09T23:30:33.748Z,12.76
2024-05-09T23:33:05.421Z,12.72
2024-05-09T23:35:32.249Z,12.79
2024-05-09T23:37:58.955Z,12.82
2024-05-09T23:40:36.866Z,12.83
2024-05-09T23:43:07.056Z,12.83
2024-05-09T23:45:34.116Z,12.80
2024-05-09T23:48:01.415Z,12.81
2024-05-09T23:50:34.570Z,12.78
2024-05-09T23:53:04.743Z,12.80
2024-05-09T23:55:32.318Z,12.79
2024-05-09T23:57:59.575Z,12.84
